sensor_id;sensor_type;location;lat;lon;timestamp;P1;durP1;ratioP1;P2;durP2;ratioP2
69629;SDS011;56857;52.212;5.496;2023-08-06T00:00:10;13.30;;;7.55;;
69629;SDS011;56857;52.212;5.496;2023-08-06T00:02:35;13.40;;;7.93;;
69629;SDS011;56857;52.212;5.496;2023-08-06T00:05:01;11.95;;;6.88;;
69629;SDS011;56857;52.212;5.496;2023-08-06T00:07:26;13.52;;;7.50;;
69629;SDS011;56857;52.212;5.496;2023-08-06T00:09:51;11.57;;;6.63;;
69629;SDS011;56857;52.212;5.496;2023-08-06T00:12:17;13.02;;;6.97;;
69629;SDS011;56857;52.212;5.496;2023-08-06T00:14:42;11.70;;;6.28;;
69629;SDS011;56857;52.212;5.496;2023-08-06T00:17:07;16.98;;;7.40;;
69629;SDS011;56857;52.212;5.496;2023-08-06T00:19:33;11.82;;;6.95;;
69629;SDS011;56857;52.212;5.496;2023-08-06T00:21:58;11.03;;;6.70;;
69629;SDS011;56857;52.212;5.496;2023-08-06T00:24:23;13.80;;;6.13;;
69629;SDS011;56857;52.212;5.496;2023-08-06T00:26:49;11.63;;;6.88;;
69629;SDS011;56857;52.212;5.496;2023-08-06T00:29:14;14.25;;;7.43;;
69629;SDS011;56857;52.212;5.496;2023-08-06T00:31:39;11.27;;;7.20;;
69629;SDS011;56857;52.212;5.496;2023-08-06T00:34:04;15.25;;;7.07;;
69629;SDS011;56857;52.212;5.496;2023-08-06T00:36:30;15.60;;;7.27;;
69629;SDS011;56857;52.212;5.496;2023-08-06T00:38:55;13.40;;;7.57;;
69629;SDS011;56857;52.212;5.496;2023-08-06T00:41:21;14.80;;;7.88;;
69629;SDS011;56857;52.212;5.496;2023-08-06T00:43:46;13.50;;;7.80;;
69629;SDS011;56857;52.212;5.496;2023-08-06T00:46:11;14.63;;;7.00;;
69629;SDS011;56857;52.212;5.496;2023-08-06T00:48:37;14.45;;;8.77;;
69629;SDS011;56857;52.212;5.496;2023-08-06T00:51:02;12.60;;;9.07;;
69629;SDS011;56857;52.212;5.496;2023-08-06T00:53:28;13.43;;;7.93;;
69629;SDS011;56857;52.212;5.496;2023-08-06T00:55:53;18.17;;;9.57;;
69629;SDS011;56857;52.212;5.496;2023-08-06T00:58:19;17.15;;;8.80;;
69629;SDS011;56857;52.212;5.496;2023-08-06T01:00:44;14.23;;;9.57;;
69629;SDS011;56857;52.212;5.496;2023-08-06T01:03:10;17.27;;;9.67;;
69629;SDS011;56857;52.212;5.496;2023-08-06T01:05:35;14.25;;;10.13;;
69629;SDS011;56857;52.212;5.496;2023-08-06T01:13:54;16.88;;;10.80;;
69629;SDS011;56857;52.212;5.496;2023-08-06T01:16:27;15.02;;;10.18;;
69629;SDS011;56857;52.212;5.496;2023-08-06T01:18:53;15.93;;;10.85;;
69629;SDS011;56857;52.212;5.496;2023-08-06T01:21:19;14.80;;;9.77;;
69629;SDS011;56857;52.212;5.496;2023-08-06T01:23:44;13.50;;;9.32;;
69629;SDS011;56857;52.212;5.496;2023-08-06T01:26:14;19.63;;;9.88;;
69629;SDS011;56857;52.212;5.496;2023-08-06T01:28:53;14.75;;;9.60;;
69629;SDS011;56857;52.212;5.496;2023-08-06T01:31:26;14.30;;;9.75;;
69629;SDS011;56857;52.212;5.496;2023-08-06T01:33:54;17.48;;;11.13;;
69629;SDS011;56857;52.212;5.496;2023-08-06T01:36:21;18.45;;;10.18;;
69629;SDS011;56857;52.212;5.496;2023-08-06T01:38:46;15.90;;;9.25;;
69629;SDS011;56857;52.212;5.496;2023-08-06T01:41:12;17.42;;;10.70;;
69629;SDS011;56857;52.212;5.496;2023-08-06T01:43:37;17.95;;;11.38;;
69629;SDS011;56857;52.212;5.496;2023-08-06T01:46:03;18.43;;;10.20;;
69629;SDS011;56857;52.212;5.496;2023-08-06T01:48:28;17.90;;;10.82;;
69629;SDS011;56857;52.212;5.496;2023-08-06T01:50:53;23.85;;;11.45;;
69629;SDS011;56857;52.212;5.496;2023-08-06T01:53:19;16.03;;;11.10;;
69629;SDS011;56857;52.212;5.496;2023-08-06T01:55:47;17.57;;;10.83;;
69629;SDS011;56857;52.212;5.496;2023-08-06T01:58:13;16.55;;;11.27;;
69629;SDS011;56857;52.212;5.496;2023-08-06T02:00:38;15.03;;;10.30;;
69629;SDS011;56857;52.212;5.496;2023-08-06T02:03:04;19.90;;;10.68;;
69629;SDS011;56857;52.212;5.496;2023-08-06T02:05:29;16.85;;;11.10;;
69629;SDS011;56857;52.212;5.496;2023-08-06T02:07:54;19.00;;;11.05;;
69629;SDS011;56857;52.212;5.496;2023-08-06T02:10:20;20.27;;;12.07;;
69629;SDS011;56857;52.212;5.496;2023-08-06T02:12:45;19.27;;;10.93;;
69629;SDS011;56857;52.212;5.496;2023-08-06T02:15:10;18.17;;;11.45;;
69629;SDS011;56857;52.212;5.496;2023-08-06T02:17:35;19.30;;;12.27;;
69629;SDS011;56857;52.212;5.496;2023-08-06T02:20:01;18.33;;;10.47;;
69629;SDS011;56857;52.212;5.496;2023-08-06T02:22:26;19.10;;;10.57;;
69629;SDS011;56857;52.212;5.496;2023-08-06T02:24:51;20.73;;;10.45;;
69629;SDS011;56857;52.212;5.496;2023-08-06T02:27:17;17.60;;;10.70;;
69629;SDS011;56857;52.212;5.496;2023-08-06T02:29:42;20.17;;;11.00;;
69629;SDS011;56857;52.212;5.496;2023-08-06T02:32:07;17.52;;;10.95;;
69629;SDS011;56857;52.212;5.496;2023-08-06T02:34:33;18.70;;;11.07;;
69629;SDS011;56857;52.212;5.496;2023-08-06T02:36:58;17.13;;;11.13;;
69629;SDS011;56857;52.212;5.496;2023-08-06T02:39:23;20.50;;;11.27;;
69629;SDS011;56857;52.212;5.496;2023-08-06T02:41:49;19.75;;;11.38;;
69629;SDS011;56857;52.212;5.496;2023-08-06T02:44:14;17.40;;;11.25;;
69629;SDS011;56857;52.212;5.496;2023-08-06T02:46:39;17.45;;;11.95;;
69629;SDS011;56857;52.212;5.496;2023-08-06T02:49:06;14.98;;;10.02;;
69629;SDS011;56857;52.212;5.496;2023-08-06T02:51:31;15.90;;;10.57;;
69629;SDS011;56857;52.212;5.496;2023-08-06T02:53:57;15.20;;;11.43;;
69629;SDS011;56857;52.212;5.496;2023-08-06T02:56:22;21.80;;;11.43;;
69629;SDS011;56857;52.212;5.496;2023-08-06T02:58:47;15.52;;;10.05;;
69629;SDS011;56857;52.212;5.496;2023-08-06T03:01:13;16.05;;;10.05;;
69629;SDS011;56857;52.212;5.496;2023-08-06T03:03:38;16.55;;;9.75;;
69629;SDS011;56857;52.212;5.496;2023-08-06T03:06:03;18.60;;;10.85;;
69629;SDS011;56857;52.212;5.496;2023-08-06T03:08:28;16.30;;;11.25;;
69629;SDS011;56857;52.212;5.496;2023-08-06T03:10:54;16.65;;;11.23;;
69629;SDS011;56857;52.212;5.496;2023-08-06T03:13:19;18.30;;;11.55;;
69629;SDS011;56857;52.212;5.496;2023-08-06T03:16:06;16.83;;;12.00;;
69629;SDS011;56857;52.212;5.496;2023-08-06T03:18:30;15.75;;;11.25;;
69629;SDS011;56857;52.212;5.496;2023-08-06T03:20:56;16.65;;;11.43;;
69629;SDS011;56857;52.212;5.496;2023-08-06T03:23:21;16.42;;;12.02;;
69629;SDS011;56857;52.212;5.496;2023-08-06T03:25:46;17.92;;;11.93;;
69629;SDS011;56857;52.212;5.496;2023-08-06T03:28:11;16.73;;;11.98;;
69629;SDS011;56857;52.212;5.496;2023-08-06T03:30:37;17.77;;;11.60;;
69629;SDS011;56857;52.212;5.496;2023-08-06T03:33:03;18.05;;;11.90;;
69629;SDS011;56857;52.212;5.496;2023-08-06T03:35:28;17.35;;;12.77;;
69629;SDS011;56857;52.212;5.496;2023-08-06T03:37:54;17.92;;;12.82;;
69629;SDS011;56857;52.212;5.496;2023-08-06T03:40:19;18.98;;;12.57;;
69629;SDS011;56857;52.212;5.496;2023-08-06T03:42:44;19.80;;;13.18;;
69629;SDS011;56857;52.212;5.496;2023-08-06T03:45:10;21.43;;;13.70;;
69629;SDS011;56857;52.212;5.496;2023-08-06T03:47:35;19.02;;;13.02;;
69629;SDS011;56857;52.212;5.496;2023-08-06T03:50:00;18.38;;;12.52;;
69629;SDS011;56857;52.212;5.496;2023-08-06T03:52:26;20.98;;;13.20;;
69629;SDS011;56857;52.212;5.496;2023-08-06T03:54:51;18.95;;;13.40;;
69629;SDS011;56857;52.212;5.496;2023-08-06T03:57:17;21.75;;;13.43;;
69629;SDS011;56857;52.212;5.496;2023-08-06T03:59:42;20.67;;;13.40;;
69629;SDS011;56857;52.212;5.496;2023-08-06T04:02:07;18.13;;;13.20;;
69629;SDS011;56857;52.212;5.496;2023-08-06T04:04:33;19.75;;;14.10;;
69629;SDS011;56857;52.212;5.496;2023-08-06T04:06:58;19.08;;;12.95;;
69629;SDS011;56857;52.212;5.496;2023-08-06T04:09:23;19.90;;;13.82;;
69629;SDS011;56857;52.212;5.496;2023-08-06T04:11:49;25.48;;;14.68;;
69629;SDS011;56857;52.212;5.496;2023-08-06T04:14:14;21.87;;;14.57;;
69629;SDS011;56857;52.212;5.496;2023-08-06T04:16:39;19.38;;;13.77;;
69629;SDS011;56857;52.212;5.496;2023-08-06T04:19:04;18.10;;;12.60;;
69629;SDS011;56857;52.212;5.496;2023-08-06T04:21:30;19.15;;;13.85;;
69629;SDS011;56857;52.212;5.496;2023-08-06T04:23:55;21.35;;;13.73;;
69629;SDS011;56857;52.212;5.496;2023-08-06T04:26:21;18.23;;;12.77;;
69629;SDS011;56857;52.212;5.496;2023-08-06T04:28:46;20.60;;;13.13;;
69629;SDS011;56857;52.212;5.496;2023-08-06T04:31:12;19.53;;;14.10;;
69629;SDS011;56857;52.212;5.496;2023-08-06T04:33:37;18.83;;;12.35;;
69629;SDS011;56857;52.212;5.496;2023-08-06T04:36:03;20.35;;;13.80;;
69629;SDS011;56857;52.212;5.496;2023-08-06T04:38:28;20.85;;;13.95;;
69629;SDS011;56857;52.212;5.496;2023-08-06T04:40:53;21.30;;;14.63;;
69629;SDS011;56857;52.212;5.496;2023-08-06T04:43:19;20.55;;;14.27;;
69629;SDS011;56857;52.212;5.496;2023-08-06T04:45:50;23.73;;;13.38;;
69629;SDS011;56857;52.212;5.496;2023-08-06T04:48:17;20.48;;;14.05;;
69629;SDS011;56857;52.212;5.496;2023-08-06T04:50:43;18.95;;;13.13;;
69629;SDS011;56857;52.212;5.496;2023-08-06T04:53:12;19.45;;;13.98;;
69629;SDS011;56857;52.212;5.496;2023-08-06T04:55:37;22.45;;;14.85;;
69629;SDS011;56857;52.212;5.496;2023-08-06T04:58:03;19.33;;;13.55;;
69629;SDS011;56857;52.212;5.496;2023-08-06T05:00:28;20.70;;;13.88;;
69629;SDS011;56857;52.212;5.496;2023-08-06T05:02:53;21.00;;;14.75;;
69629;SDS011;56857;52.212;5.496;2023-08-06T05:05:19;20.88;;;14.05;;
69629;SDS011;56857;52.212;5.496;2023-08-06T05:07:45;18.73;;;13.93;;
69629;SDS011;56857;52.212;5.496;2023-08-06T05:10:13;21.70;;;14.35;;
69629;SDS011;56857;52.212;5.496;2023-08-06T05:12:38;19.60;;;14.55;;
69629;SDS011;56857;52.212;5.496;2023-08-06T05:15:04;20.70;;;13.93;;
69629;SDS011;56857;52.212;5.496;2023-08-06T05:17:29;23.65;;;13.05;;
69629;SDS011;56857;52.212;5.496;2023-08-06T05:19:55;21.88;;;14.35;;
69629;SDS011;56857;52.212;5.496;2023-08-06T05:22:20;20.30;;;14.27;;
69629;SDS011;56857;52.212;5.496;2023-08-06T05:24:45;18.98;;;13.32;;
69629;SDS011;56857;52.212;5.496;2023-08-06T05:27:11;21.63;;;14.80;;
69629;SDS011;56857;52.212;5.496;2023-08-06T05:29:36;20.52;;;13.40;;
69629;SDS011;56857;52.212;5.496;2023-08-06T05:32:01;21.17;;;14.68;;
69629;SDS011;56857;52.212;5.496;2023-08-06T05:34:27;23.15;;;14.77;;
69629;SDS011;56857;52.212;5.496;2023-08-06T05:36:52;20.20;;;14.00;;
69629;SDS011;56857;52.212;5.496;2023-08-06T05:39:17;21.15;;;14.15;;
69629;SDS011;56857;52.212;5.496;2023-08-06T05:41:43;20.02;;;14.45;;
69629;SDS011;56857;52.212;5.496;2023-08-06T05:44:08;21.45;;;13.20;;
69629;SDS011;56857;52.212;5.496;2023-08-06T05:46:33;22.73;;;12.85;;
69629;SDS011;56857;52.212;5.496;2023-08-06T05:48:59;19.80;;;13.55;;
69629;SDS011;56857;52.212;5.496;2023-08-06T05:51:25;18.40;;;13.55;;
69629;SDS011;56857;52.212;5.496;2023-08-06T05:53:51;18.63;;;12.45;;
69629;SDS011;56857;52.212;5.496;2023-08-06T05:56:16;19.25;;;12.95;;
69629;SDS011;56857;52.212;5.496;2023-08-06T05:58:42;18.88;;;13.23;;
69629;SDS011;56857;52.212;5.496;2023-08-06T06:01:07;21.73;;;12.98;;
69629;SDS011;56857;52.212;5.496;2023-08-06T06:03:32;17.58;;;12.70;;
69629;SDS011;56857;52.212;5.496;2023-08-06T06:05:58;19.37;;;12.60;;
69629;SDS011;56857;52.212;5.496;2023-08-06T06:08:25;22.42;;;13.10;;
69629;SDS011;56857;52.212;5.496;2023-08-06T06:10:51;18.00;;;13.23;;
69629;SDS011;56857;52.212;5.496;2023-08-06T06:13:16;18.25;;;12.75;;
69629;SDS011;56857;52.212;5.496;2023-08-06T06:15:41;17.93;;;12.37;;
69629;SDS011;56857;52.212;5.496;2023-08-06T06:18:07;18.58;;;12.35;;
69629;SDS011;56857;52.212;5.496;2023-08-06T06:20:32;19.10;;;13.63;;
69629;SDS011;56857;52.212;5.496;2023-08-06T06:22:57;19.35;;;13.57;;
69629;SDS011;56857;52.212;5.496;2023-08-06T06:25:23;18.47;;;13.07;;
69629;SDS011;56857;52.212;5.496;2023-08-06T06:27:48;17.58;;;12.70;;
69629;SDS011;56857;52.212;5.496;2023-08-06T06:30:13;20.20;;;13.30;;
69629;SDS011;56857;52.212;5.496;2023-08-06T06:32:39;19.85;;;14.02;;
69629;SDS011;56857;52.212;5.496;2023-08-06T06:35:04;17.98;;;12.02;;
69629;SDS011;56857;52.212;5.496;2023-08-06T06:37:30;18.15;;;12.70;;
69629;SDS011;56857;52.212;5.496;2023-08-06T06:39:55;17.52;;;12.55;;
69629;SDS011;56857;52.212;5.496;2023-08-06T06:42:20;18.60;;;13.20;;
69629;SDS011;56857;52.212;5.496;2023-08-06T06:44:46;19.17;;;13.25;;
69629;SDS011;56857;52.212;5.496;2023-08-06T06:47:11;19.87;;;13.97;;
69629;SDS011;56857;52.212;5.496;2023-08-06T06:49:36;19.55;;;13.80;;
69629;SDS011;56857;52.212;5.496;2023-08-06T06:52:02;17.17;;;13.07;;
69629;SDS011;56857;52.212;5.496;2023-08-06T06:54:27;19.08;;;13.40;;
69629;SDS011;56857;52.212;5.496;2023-08-06T06:56:52;20.35;;;13.15;;
69629;SDS011;56857;52.212;5.496;2023-08-06T06:59:17;19.60;;;14.13;;
69629;SDS011;56857;52.212;5.496;2023-08-06T07:01:43;18.97;;;14.00;;
69629;SDS011;56857;52.212;5.496;2023-08-06T07:04:08;22.05;;;13.82;;
69629;SDS011;56857;52.212;5.496;2023-08-06T07:06:33;20.43;;;13.87;;
69629;SDS011;56857;52.212;5.496;2023-08-06T07:08:59;20.85;;;13.32;;
69629;SDS011;56857;52.212;5.496;2023-08-06T07:11:24;19.05;;;14.23;;
69629;SDS011;56857;52.212;5.496;2023-08-06T07:13:49;23.17;;;14.60;;
69629;SDS011;56857;52.212;5.496;2023-08-06T07:16:20;18.60;;;12.88;;
69629;SDS011;56857;52.212;5.496;2023-08-06T07:18:46;20.65;;;13.85;;
69629;SDS011;56857;52.212;5.496;2023-08-06T07:21:11;20.00;;;13.45;;
69629;SDS011;56857;52.212;5.496;2023-08-06T07:23:36;18.92;;;12.75;;
69629;SDS011;56857;52.212;5.496;2023-08-06T07:26:02;21.05;;;12.80;;
69629;SDS011;56857;52.212;5.496;2023-08-06T07:28:27;19.67;;;12.43;;
69629;SDS011;56857;52.212;5.496;2023-08-06T07:30:52;17.03;;;11.87;;
69629;SDS011;56857;52.212;5.496;2023-08-06T07:33:17;19.03;;;11.13;;
69629;SDS011;56857;52.212;5.496;2023-08-06T07:35:43;20.45;;;11.80;;
69629;SDS011;56857;52.212;5.496;2023-08-06T07:38:08;16.70;;;11.88;;
69629;SDS011;56857;52.212;5.496;2023-08-06T07:40:35;18.53;;;11.20;;
69629;SDS011;56857;52.212;5.496;2023-08-06T07:43:00;17.50;;;11.90;;
69629;SDS011;56857;52.212;5.496;2023-08-06T07:45:26;19.63;;;12.60;;
69629;SDS011;56857;52.212;5.496;2023-08-06T07:47:51;16.30;;;11.53;;
69629;SDS011;56857;52.212;5.496;2023-08-06T07:50:16;18.93;;;12.47;;
69629;SDS011;56857;52.212;5.496;2023-08-06T07:52:41;16.37;;;10.77;;
69629;SDS011;56857;52.212;5.496;2023-08-06T07:55:07;20.33;;;12.17;;
69629;SDS011;56857;52.212;5.496;2023-08-06T07:57:32;19.95;;;13.38;;
69629;SDS011;56857;52.212;5.496;2023-08-06T07:59:58;17.77;;;12.13;;
69629;SDS011;56857;52.212;5.496;2023-08-06T08:02:23;19.52;;;12.80;;
69629;SDS011;56857;52.212;5.496;2023-08-06T08:04:49;18.52;;;12.75;;
69629;SDS011;56857;52.212;5.496;2023-08-06T08:07:14;18.88;;;12.45;;
69629;SDS011;56857;52.212;5.496;2023-08-06T08:09:40;18.87;;;12.60;;
69629;SDS011;56857;52.212;5.496;2023-08-06T08:12:05;19.27;;;13.45;;
69629;SDS011;56857;52.212;5.496;2023-08-06T08:14:30;19.25;;;12.93;;
69629;SDS011;56857;52.212;5.496;2023-08-06T08:16:56;20.17;;;13.15;;
69629;SDS011;56857;52.212;5.496;2023-08-06T08:19:21;19.40;;;12.50;;
69629;SDS011;56857;52.212;5.496;2023-08-06T08:21:46;20.65;;;13.80;;
69629;SDS011;56857;52.212;5.496;2023-08-06T08:24:12;22.30;;;15.02;;
69629;SDS011;56857;52.212;5.496;2023-08-06T08:26:37;21.35;;;14.35;;
69629;SDS011;56857;52.212;5.496;2023-08-06T08:29:02;21.27;;;14.70;;
69629;SDS011;56857;52.212;5.496;2023-08-06T08:31:27;20.10;;;14.13;;
69629;SDS011;56857;52.212;5.496;2023-08-06T08:33:53;22.13;;;15.03;;
69629;SDS011;56857;52.212;5.496;2023-08-06T08:36:18;21.75;;;13.57;;
69629;SDS011;56857;52.212;5.496;2023-08-06T08:38:43;23.47;;;15.77;;
69629;SDS011;56857;52.212;5.496;2023-08-06T08:41:09;22.08;;;15.25;;
69629;SDS011;56857;52.212;5.496;2023-08-06T08:43:35;21.92;;;15.30;;
69629;SDS011;56857;52.212;5.496;2023-08-06T08:46:01;22.25;;;13.88;;
69629;SDS011;56857;52.212;5.496;2023-08-06T08:48:28;21.48;;;15.00;;
69629;SDS011;56857;52.212;5.496;2023-08-06T08:50:54;22.23;;;14.75;;
69629;SDS011;56857;52.212;5.496;2023-08-06T08:53:20;20.42;;;13.70;;
69629;SDS011;56857;52.212;5.496;2023-08-06T08:55:47;20.88;;;13.75;;
69629;SDS011;56857;52.212;5.496;2023-08-06T08:58:14;22.73;;;15.57;;
69629;SDS011;56857;52.212;5.496;2023-08-06T09:00:42;23.65;;;15.82;;
69629;SDS011;56857;52.212;5.496;2023-08-06T09:03:10;19.02;;;13.70;;
69629;SDS011;56857;52.212;5.496;2023-08-06T09:05:35;19.27;;;14.02;;
69629;SDS011;56857;52.212;5.496;2023-08-06T09:08:05;21.60;;;14.63;;
69629;SDS011;56857;52.212;5.496;2023-08-06T09:10:30;20.77;;;14.68;;
69629;SDS011;56857;52.212;5.496;2023-08-06T09:12:56;19.33;;;12.57;;
69629;SDS011;56857;52.212;5.496;2023-08-06T09:15:25;8.10;;;4.93;;
69629;SDS011;56857;52.212;5.496;2023-08-06T09:17:52;5.28;;;3.00;;
69629;SDS011;56857;52.212;5.496;2023-08-06T09:20:17;4.00;;;2.30;;
69629;SDS011;56857;52.212;5.496;2023-08-06T09:22:43;4.20;;;2.22;;
69629;SDS011;56857;52.212;5.496;2023-08-06T09:25:08;4.28;;;1.85;;
69629;SDS011;56857;52.212;5.496;2023-08-06T09:27:33;2.25;;;1.40;;
69629;SDS011;56857;52.212;5.496;2023-08-06T09:29:59;1.38;;;0.80;;
69629;SDS011;56857;52.212;5.496;2023-08-06T09:32:24;1.23;;;1.10;;
69629;SDS011;56857;52.212;5.496;2023-08-06T09:34:54;3.42;;;1.20;;
69629;SDS011;56857;52.212;5.496;2023-08-06T09:37:21;2.35;;;1.38;;
69629;SDS011;56857;52.212;5.496;2023-08-06T09:39:46;2.88;;;1.40;;
69629;SDS011;56857;52.212;5.496;2023-08-06T09:42:14;5.30;;;1.70;;
69629;SDS011;56857;52.212;5.496;2023-08-06T09:44:40;4.18;;;1.80;;
69629;SDS011;56857;52.212;5.496;2023-08-06T09:47:05;3.53;;;1.90;;
69629;SDS011;56857;52.212;5.496;2023-08-06T09:51:59;5.60;;;2.60;;
69629;SDS011;56857;52.212;5.496;2023-08-06T09:54:25;6.13;;;3.00;;
69629;SDS011;56857;52.212;5.496;2023-08-06T09:56:52;6.57;;;2.70;;
69629;SDS011;56857;52.212;5.496;2023-08-06T09:59:18;5.85;;;2.70;;
69629;SDS011;56857;52.212;5.496;2023-08-06T10:01:44;8.32;;;3.25;;
69629;SDS011;56857;52.212;5.496;2023-08-06T10:04:10;6.63;;;3.03;;
69629;SDS011;56857;52.212;5.496;2023-08-06T10:06:38;5.00;;;2.40;;
69629;SDS011;56857;52.212;5.496;2023-08-06T10:09:04;6.68;;;2.30;;
69629;SDS011;56857;52.212;5.496;2023-08-06T10:11:29;6.40;;;2.70;;
69629;SDS011;56857;52.212;5.496;2023-08-06T10:13:57;6.07;;;2.83;;
69629;SDS011;56857;52.212;5.496;2023-08-06T10:16:27;6.28;;;3.03;;
69629;SDS011;56857;52.212;5.496;2023-08-06T10:18:53;5.35;;;2.50;;
69629;SDS011;56857;52.212;5.496;2023-08-06T10:21:19;8.52;;;3.03;;
69629;SDS011;56857;52.212;5.496;2023-08-06T10:23:49;6.07;;;2.60;;
69629;SDS011;56857;52.212;5.496;2023-08-06T10:26:19;6.28;;;2.65;;
69629;SDS011;56857;52.212;5.496;2023-08-06T10:28:44;7.80;;;2.93;;
69629;SDS011;56857;52.212;5.496;2023-08-06T10:31:09;8.10;;;3.03;;
69629;SDS011;56857;52.212;5.496;2023-08-06T10:33:41;6.93;;;3.30;;
69629;SDS011;56857;52.212;5.496;2023-08-06T10:36:10;7.00;;;3.20;;
69629;SDS011;56857;52.212;5.496;2023-08-06T10:38:43;6.80;;;3.58;;
69629;SDS011;56857;52.212;5.496;2023-08-06T10:41:14;7.25;;;3.60;;
69629;SDS011;56857;52.212;5.496;2023-08-06T10:43:41;9.90;;;3.65;;
69629;SDS011;56857;52.212;5.496;2023-08-06T10:46:09;7.18;;;3.65;;
69629;SDS011;56857;52.212;5.496;2023-08-06T10:48:37;7.10;;;3.75;;
69629;SDS011;56857;52.212;5.496;2023-08-06T10:51:07;7.10;;;4.28;;
69629;SDS011;56857;52.212;5.496;2023-08-06T10:53:33;6.68;;;3.50;;
69629;SDS011;56857;52.212;5.496;2023-08-06T10:55:58;7.80;;;3.73;;
69629;SDS011;56857;52.212;5.496;2023-08-06T10:58:23;7.88;;;3.45;;
69629;SDS011;56857;52.212;5.496;2023-08-06T11:00:48;6.70;;;3.20;;
69629;SDS011;56857;52.212;5.496;2023-08-06T11:03:14;8.98;;;3.83;;
69629;SDS011;56857;52.212;5.496;2023-08-06T11:05:40;8.23;;;3.63;;
69629;SDS011;56857;52.212;5.496;2023-08-06T11:08:05;8.73;;;3.50;;
69629;SDS011;56857;52.212;5.496;2023-08-06T11:10:32;8.18;;;3.67;;
69629;SDS011;56857;52.212;5.496;2023-08-06T11:13:01;7.18;;;3.85;;
69629;SDS011;56857;52.212;5.496;2023-08-06T11:15:26;8.20;;;4.18;;
69629;SDS011;56857;52.212;5.496;2023-08-06T11:17:52;8.52;;;4.25;;
69629;SDS011;56857;52.212;5.496;2023-08-06T11:20:17;9.68;;;4.53;;
69629;SDS011;56857;52.212;5.496;2023-08-06T11:22:45;8.52;;;3.88;;
69629;SDS011;56857;52.212;5.496;2023-08-06T11:25:10;9.82;;;4.53;;
69629;SDS011;56857;52.212;5.496;2023-08-06T11:27:36;8.27;;;3.93;;
69629;SDS011;56857;52.212;5.496;2023-08-06T11:30:01;8.73;;;4.65;;
69629;SDS011;56857;52.212;5.496;2023-08-06T11:32:27;8.93;;;4.32;;
69629;SDS011;56857;52.212;5.496;2023-08-06T11:34:52;10.45;;;4.40;;
69629;SDS011;56857;52.212;5.496;2023-08-06T11:37:20;9.25;;;4.18;;
69629;SDS011;56857;52.212;5.496;2023-08-06T11:39:47;9.60;;;4.22;;
69629;SDS011;56857;52.212;5.496;2023-08-06T11:42:12;9.52;;;3.90;;
69629;SDS011;56857;52.212;5.496;2023-08-06T11:44:38;7.72;;;4.15;;
69629;SDS011;56857;52.212;5.496;2023-08-06T11:47:03;9.48;;;3.42;;
69629;SDS011;56857;52.212;5.496;2023-08-06T11:49:45;9.32;;;3.88;;
69629;SDS011;56857;52.212;5.496;2023-08-06T11:52:16;7.15;;;3.20;;
69629;SDS011;56857;52.212;5.496;2023-08-06T11:54:43;8.13;;;3.60;;
69629;SDS011;56857;52.212;5.496;2023-08-06T11:57:08;9.98;;;3.92;;
69629;SDS011;56857;52.212;5.496;2023-08-06T11:59:34;6.65;;;2.95;;
69629;SDS011;56857;52.212;5.496;2023-08-06T12:02:01;8.40;;;3.20;;
69629;SDS011;56857;52.212;5.496;2023-08-06T12:04:27;7.63;;;3.30;;
69629;SDS011;56857;52.212;5.496;2023-08-06T12:06:52;9.35;;;3.40;;
69629;SDS011;56857;52.212;5.496;2023-08-06T12:09:17;6.78;;;3.50;;
69629;SDS011;56857;52.212;5.496;2023-08-06T12:11:43;6.45;;;3.00;;
69629;SDS011;56857;52.212;5.496;2023-08-06T12:14:08;8.15;;;3.25;;
69629;SDS011;56857;52.212;5.496;2023-08-06T12:16:33;9.23;;;2.92;;
69629;SDS011;56857;52.212;5.496;2023-08-06T12:18:59;7.00;;;3.50;;
69629;SDS011;56857;52.212;5.496;2023-08-06T12:21:24;6.65;;;2.95;;
69629;SDS011;56857;52.212;5.496;2023-08-06T12:23:49;6.85;;;3.15;;
69629;SDS011;56857;52.212;5.496;2023-08-06T12:26:14;7.63;;;2.80;;
69629;SDS011;56857;52.212;5.496;2023-08-06T12:28:40;6.47;;;2.80;;
69629;SDS011;56857;52.212;5.496;2023-08-06T12:31:05;8.55;;;3.40;;
69629;SDS011;56857;52.212;5.496;2023-08-06T12:33:30;8.32;;;3.10;;
69629;SDS011;56857;52.212;5.496;2023-08-06T12:35:56;7.60;;;2.60;;
69629;SDS011;56857;52.212;5.496;2023-08-06T12:38:21;7.18;;;2.90;;
69629;SDS011;56857;52.212;5.496;2023-08-06T12:40:46;9.10;;;3.45;;
69629;SDS011;56857;52.212;5.496;2023-08-06T12:43:12;6.85;;;2.85;;
69629;SDS011;56857;52.212;5.496;2023-08-06T12:45:37;7.03;;;2.80;;
69629;SDS011;56857;52.212;5.496;2023-08-06T12:48:03;7.57;;;2.70;;
69629;SDS011;56857;52.212;5.496;2023-08-06T12:50:29;7.68;;;3.17;;
69629;SDS011;56857;52.212;5.496;2023-08-06T12:52:54;7.25;;;3.28;;
69629;SDS011;56857;52.212;5.496;2023-08-06T12:55:19;7.38;;;2.60;;
69629;SDS011;56857;52.212;5.496;2023-08-06T12:57:45;7.88;;;3.17;;
69629;SDS011;56857;52.212;5.496;2023-08-06T13:00:10;6.67;;;2.87;;
69629;SDS011;56857;52.212;5.496;2023-08-06T13:02:35;7.03;;;3.38;;
69629;SDS011;56857;52.212;5.496;2023-08-06T13:05:01;6.63;;;2.87;;
69629;SDS011;56857;52.212;5.496;2023-08-06T13:07:26;5.95;;;2.50;;
69629;SDS011;56857;52.212;5.496;2023-08-06T13:09:51;7.45;;;2.60;;
69629;SDS011;56857;52.212;5.496;2023-08-06T13:12:17;8.03;;;3.10;;
69629;SDS011;56857;52.212;5.496;2023-08-06T13:14:42;5.57;;;2.60;;
69629;SDS011;56857;52.212;5.496;2023-08-06T13:17:07;7.20;;;2.80;;
69629;SDS011;56857;52.212;5.496;2023-08-06T13:19:32;6.63;;;2.90;;
69629;SDS011;56857;52.212;5.496;2023-08-06T13:21:59;7.80;;;3.30;;
69629;SDS011;56857;52.212;5.496;2023-08-06T13:24:26;6.57;;;3.80;;
69629;SDS011;56857;52.212;5.496;2023-08-06T13:26:51;6.80;;;3.42;;
69629;SDS011;56857;52.212;5.496;2023-08-06T13:29:16;9.40;;;3.87;;
69629;SDS011;56857;52.212;5.496;2023-08-06T13:31:42;6.88;;;3.22;;
69629;SDS011;56857;52.212;5.496;2023-08-06T13:34:07;7.35;;;3.63;;
69629;SDS011;56857;52.212;5.496;2023-08-06T13:36:32;8.18;;;3.90;;
69629;SDS011;56857;52.212;5.496;2023-08-06T13:38:58;8.00;;;3.95;;
69629;SDS011;56857;52.212;5.496;2023-08-06T13:41:23;8.63;;;3.67;;
69629;SDS011;56857;52.212;5.496;2023-08-06T13:43:48;7.95;;;3.90;;
69629;SDS011;56857;52.212;5.496;2023-08-06T13:46:14;8.23;;;3.72;;
69629;SDS011;56857;52.212;5.496;2023-08-06T13:48:40;9.95;;;4.53;;
69629;SDS011;56857;52.212;5.496;2023-08-06T13:51:05;7.85;;;4.13;;
69629;SDS011;56857;52.212;5.496;2023-08-06T13:53:30;13.45;;;4.20;;
69629;SDS011;56857;52.212;5.496;2023-08-06T13:55:56;8.00;;;3.90;;
69629;SDS011;56857;52.212;5.496;2023-08-06T13:58:21;7.88;;;4.72;;
69629;SDS011;56857;52.212;5.496;2023-08-06T14:00:46;8.70;;;4.30;;
69629;SDS011;56857;52.212;5.496;2023-08-06T14:03:12;7.38;;;3.88;;
69629;SDS011;56857;52.212;5.496;2023-08-06T14:05:37;8.03;;;4.60;;
69629;SDS011;56857;52.212;5.496;2023-08-06T14:08:02;7.47;;;4.05;;
69629;SDS011;56857;52.212;5.496;2023-08-06T14:10:28;9.20;;;5.00;;
69629;SDS011;56857;52.212;5.496;2023-08-06T14:12:53;8.93;;;4.35;;
69629;SDS011;56857;52.212;5.496;2023-08-06T14:15:19;8.40;;;3.90;;
69629;SDS011;56857;52.212;5.496;2023-08-06T14:17:44;7.68;;;3.85;;
69629;SDS011;56857;52.212;5.496;2023-08-06T14:20:09;7.25;;;3.75;;
69629;SDS011;56857;52.212;5.496;2023-08-06T14:22:35;6.03;;;3.35;;
69629;SDS011;56857;52.212;5.496;2023-08-06T14:25:00;7.67;;;3.70;;
69629;SDS011;56857;52.212;5.496;2023-08-06T14:27:25;7.15;;;3.50;;
69629;SDS011;56857;52.212;5.496;2023-08-06T14:29:51;8.23;;;3.40;;
69629;SDS011;56857;52.212;5.496;2023-08-06T14:32:16;9.52;;;3.72;;